WMKP/PEN METAR and TAF weather

Enter ICAO airport designator
Station Type Date Time Source
WMKP METAR 2019/02/20 17:00 UTC NOAA

WMKP 201700Z 03003KT 7000 FEW025 SCT140 BKN270 25/24 Q1014 NOSIG


Station Type Date Time Source
WMKP Decoded METAR 2019/02/20 17:00 UTC NOAA

Penang / Bayan Lepas, Malaysia (WMKP) 05-18N 100-16E 4M
Feb 20, 2019 - 12:00 PM EST / 2019.02.20 1700 UTC
Wind: from the NNE (030 degrees) at 3 MPH (3 KT):0
Visibility: 4 mile(s):0
Sky conditions: mostly cloudy
Temperature: 77 F (25 C)
Dew Point: 75 F (24 C)
Relative Humidity: 94%
Pressure (altimeter): 29.94 in. Hg (1014 hPa)
ob: WMKP 201700Z 03003KT 7000 FEW025 SCT140 BKN270 25/24 Q1014 NOSIG
cycle: 17

Station Type Date Time Source
WMKP TAF 2019/02/20 18:12 UTC NOAA

TAF WMKP 201700Z 2018/2118 03005KT 8000 FEW025 SCT140 BKN270
TEMPO 2105/2109 23010KT


Example: see airport list